Kezdőlap
METAR-TAF:

METAR-TAF

Repülőterek :

Le Mars Municipal Airport

Le Mars, Iowa, Amerikai Egyesült Államok

földrajzi szélesség: 42-46-41N, földrajzi hosszúság: 096-11-37W, magasság: 365 m

Jelenlegi meteorológiai megfigyelések

A jelentés 24 perccel ezelõtt készült, 09:15 UTC
Észak-északnyugati szél 12 kt széllökések: 19 kt
Hőmérséklet -2°C
Páratartalom 100%
Légköri nyomás 1004 hPa
Látótávolság: 2.4 km
Borult 300 lábon
Párásság

METAR: KLRJ 090915Z AUTO 33012G19KT 1 1/2SM BR OVC003 M02/M02 A2966 RMK AO2

Idő: 03:39 (09:39 UTC)


TAF: hiányzik

Meteorológiai megfigyelések és előrejelzések több, mint 4000 repülőtéren (METAR és TAF jelentéseket).

A térképen piros és sárga pontok jelzik az elérhető meteorológiai állomásokat.

Mozgassa az egeret a pont fölött, hogy megjelenjen az állomás neve.

Azután kattintson az időjárási megfigyelések és előrejelzések megtekintéséhez.

A térkép megváltoztatása: kattintson a fekete keresztel jelölt zöld gombra ráközelítéshez, a vonallal jelölt zöld gombra távolításhoz, vagy a zöld nyilakra a szomszédos térképek eléréséhez.


METAR-TAF: